^^
Bauneg Beg-Weather Station Historical Data
 
Daily Summary for July 23, 2019 Units:  English    Metric   Both
Daily Weekly Monthly Yearly Custom
  Current: High: Low: Average:
Temperature: 63.5 °F 70.5 °F 57.4 °F 61.4 °F
Dew Point: 59.5 °F 63.1 °F 55.2 °F 59.4 °F
Humidity: 87% 99% 61% 94%
Wind Speed: 1.1mph 2.5mph 0mph 0.5mph
Wind Gust: 1.1mph 3.4mph - -
WindWSW - - WSW
Pressure: 30.00 in 30.00 in 29.91 in -
Precipitation: 1 in      
Historical Graphs
 
 
Tabular Data for July 23, 2019
Time Temperature Dew Point Pressure Wind Wind Speed Wind Gust Humidity Rainfall Rate (Hourly) solar
00:04 61.9 °F 61.5 °F 29.95 in Calm     99% 0.24 in 0.00 W/m2
00:09 61.9 °F 61.5 °F 29.94 in WSW 1.3 mph 2.2 mph 99% 0.24 in 0.00 W/m2
00:14 61.9 °F 61.5 °F 29.94 in West 2.2 mph 3.4 mph 99% 0.24 in 0.00 W/m2
00:19 61.7 °F 61.3 °F 29.94 in SW 0.2 mph 1.1 mph 99% 0.19 in 0.00 W/m2
00:24 61.9 °F 61.5 °F 29.94 in Calm     99% 0.19 in 0.00 W/m2
00:29 61.7 °F 61.3 °F 29.94 in Calm     99% 0.19 in 0.00 W/m2
00:34 61.9 °F 61.5 °F 29.94 in West 0.2 mph 1.1 mph 99% 0.24 in 0.00 W/m2
00:39 61.7 °F 61.3 °F 29.93 in WSW 0.7 mph 1.1 mph 99% 0.28 in 0.00 W/m2
00:44 61.9 °F 61.5 °F 29.94 in WSW 0.2 mph 1.1 mph 99% 0.24 in 0.00 W/m2
00:49 61.7 °F 61.3 °F 29.94 in WSW 0.2 mph 1.1 mph 99% 0.19 in 0.00 W/m2
00:54 61.7 °F 61.3 °F 29.93 in WSW 0.7 mph 1.1 mph 99% 0.12 in 0.00 W/m2
00:59 61.9 °F 61.5 °F 29.94 in SW 0.2 mph 1.1 mph 99% 0.12 in 0.00 W/m2
01:04 61.7 °F 61.3 °F 29.94 in WSW 1.1 mph 1.1 mph 99% 0.07 in 0.00 W/m2
01:09 61.7 °F 61.3 °F 29.94 in WNW 2.2 mph 2.2 mph 99% 0.12 in 0.00 W/m2
01:14 61.7 °F 61.3 °F 29.94 in West 1.1 mph 1.1 mph 99% 0.12 in 0.00 W/m2
01:19 61.7 °F 61.3 °F 29.94 in WSW 0.4 mph 1.1 mph 99% 0.14 in 0.00 W/m2
01:24 61.7 °F 61.3 °F 29.94 in West 1.3 mph 2.2 mph 99% 0.12 in 0.00 W/m2
01:29 61.5 °F 61.2 °F 29.94 in West 2.2 mph 2.2 mph 99% 0.05 in 0.00 W/m2
01:34 61.5 °F 61.2 °F 29.94 in SW 0.9 mph 1.1 mph 99% 0.07 in 0.00 W/m2
01:39 61.5 °F 61.2 °F 29.94 in Calm     99% 0.12 in 0.00 W/m2
01:44 61.3 °F 61 °F 29.95 in Calm     99% 0.12 in 0.00 W/m2
01:49 61.2 °F 60.8 °F 29.94 in WSW 0.2 mph 1.1 mph 99% 0.12 in 0.00 W/m2
01:54 61.3 °F 61 °F 29.94 in WSW 1.1 mph 1.1 mph 99% 0.12 in 0.00 W/m2
01:59 61.2 °F 60.8 °F 29.94 in WSW 1.3 mph 2.2 mph 99% 0.12 in 0.00 W/m2
02:04 61.2 °F 60.8 °F 29.94 in West 0.7 mph 1.1 mph 99% 0.12 in 0.00 W/m2
02:09 61 °F 60.6 °F 29.94 in WSW 0.2 mph 1.1 mph 99% 0.07 in 0.00 W/m2
02:14 60.8 °F 60.4 °F 29.94 in West 1.8 mph 3.4 mph 99% 0.05 in 0.00 W/m2
02:19 60.8 °F 60.4 °F 29.94 in WSW 0.4 mph 1.1 mph 99% 0.12 in 0.00 W/m2
02:24 60.8 °F 60.4 °F 29.94 in Calm     99% 0.12 in 0.00 W/m2
02:29 60.8 °F 60.4 °F 29.94 in West 0.2 mph 1.1 mph 99% 0.05 in 0.00 W/m2
02:34 60.6 °F 60.3 °F 29.94 in WSW 0.2 mph 1.1 mph 99% 0.05 in 0.00 W/m2
02:39 60.4 °F 60.1 °F 29.94 in Calm     99% 0 in 0.00 W/m2
02:44 60.3 °F 59.9 °F 29.94 in WSW 1.1 mph 1.1 mph 99% 0 in 0.00 W/m2
02:49 60.3 °F 59.9 °F 29.94 in Calm     99% 0 in 0.00 W/m2
02:54 60.1 °F 59.7 °F 29.93 in WSW 0.9 mph 1.1 mph 99% 0.07 in 0.00 W/m2
02:59 60.1 °F 59.7 °F 29.93 in WSW 1.1 mph 1.1 mph 99% 0.07 in 0.00 W/m2
03:04 59.9 °F 59.5 °F 29.93 in Calm     99% 0 in 0.00 W/m2
03:09 59.9 °F 59.5 °F 29.93 in Calm     99% 0 in 0.00 W/m2
03:14 59.9 °F 59.5 °F 29.93 in Calm     99% 0 in 0.00 W/m2
03:19 59.9 °F 59.5 °F 29.93 in West 1.3 mph 2.2 mph 99% 0 in 0.00 W/m2
03:24 59.9 °F 59.5 °F 29.93 in WSW 0.7 mph 1.1 mph 99% 0 in 0.00 W/m2
03:29 59.9 °F 59.5 °F 29.93 in Calm     99% 0 in 0.00 W/m2
03:34 59.7 °F 59.4 °F 29.92 in NNE 0.7 mph 1.1 mph 99% 0 in 0.00 W/m2
03:39 59.7 °F 59.4 °F 29.93 in Calm     99% 0 in 0.00 W/m2
03:44 59.7 °F 59.4 °F 29.92 in West 0.9 mph 1.1 mph 99% 0 in 0.00 W/m2
03:49 59.7 °F 59.4 °F 29.93 in WSW 1.1 mph 1.1 mph 99% 0 in 0.00 W/m2
03:54 59.7 °F 59.4 °F 29.92 in West 0.9 mph 1.1 mph 99% 0 in 0.00 W/m2
03:59 59.7 °F 59.4 °F 29.92 in West 0.7 mph 1.1 mph 99% 0 in 0.00 W/m2
04:04 59.7 °F 59.4 °F 29.93 in West 0.2 mph 1.1 mph 99% 0 in 0.00 W/m2
04:09 59.7 °F 59.4 °F 29.92 in West 1.3 mph 2.2 mph 99% 0.07 in 0.00 W/m2
04:14 59.5 °F 59.2 °F 29.91 in WSW 0.9 mph 2.2 mph 99% 0.07 in 0.00 W/m2
04:19 59.5 °F 59.2 °F 29.92 in Calm     99% 0 in 0.00 W/m2
04:24 59.5 °F 59.2 °F 29.91 in West 0.9 mph 1.1 mph 99% 0.05 in 0.00 W/m2
04:29 59.5 °F 59.2 °F 29.92 in West 0.7 mph 1.1 mph 99% 0.12 in 0.00 W/m2
04:34 59.7 °F 59.4 °F 29.92 in Calm     99% 0.07 in 0.00 W/m2
04:39 59.5 °F 59.2 °F 29.92 in WSW 0.7 mph 1.1 mph 99% 0.05 in 0.00 W/m2
04:44 59.7 °F 59.4 °F 29.92 in Calm     99% 0.05 in 0.00 W/m2
04:49 59.7 °F 59.4 °F 29.92 in WSW 0.9 mph 1.1 mph 99% 0.05 in 0.00 W/m2
04:54 59.7 °F 59.4 °F 29.93 in WSW 0.7 mph 1.1 mph 99% 0 in 0.00 W/m2
04:59 59.7 °F 59.4 °F 29.94 in WSW 0.9 mph 1.1 mph 99% 0.07 in 0.00 W/m2
05:04 59.7 °F 59.4 °F 29.94 in WSW 0.2 mph 1.1 mph 99% 0.12 in 0.00 W/m2
05:09 59.7 °F 59.4 °F 29.94 in Calm     99% 0.12 in 0.00 W/m2
05:14 59.5 °F 59.2 °F 29.94 in Calm     99% 0.24 in 0.00 W/m2
05:19 59.7 °F 59.4 °F 29.92 in Calm     99% 0.28 in 0.00 W/m2
05:24 59.7 °F 59.4 °F 29.92 in West 0.2 mph 1.1 mph 99% 0.31 in 0.00 W/m2
05:29 59.7 °F 59.4 °F 29.92 in West 0.9 mph 1.1 mph 99% 0.31 in 0.00 W/m2
05:34 59.7 °F 59.4 °F 29.93 in West 0.2 mph 1.1 mph 99% 0.17 in 0.00 W/m2
05:39 59.7 °F 59.4 °F 29.93 in West 0.9 mph 1.1 mph 99% 0.17 in 0.36 W/m2
05:44 59.7 °F 59.4 °F 29.93 in Calm     99% 0.19 in 1.22 W/m2
05:49 59.7 °F 59.4 °F 29.93 in WSW 0.9 mph 1.1 mph 99% 0.17 in 0.85 W/m2
05:54 59.7 °F 59.4 °F 29.94 in Calm     99% 0.17 in 2.08 W/m2
05:59 59.7 °F 59.4 °F 29.94 in West 1.3 mph 2.2 mph 99% 0.19 in 5.99 W/m2
06:04 59.7 °F 59.4 °F 29.94 in WSW 0.7 mph 1.1 mph 99% 0.19 in 9.91 W/m2
06:09 59.5 °F 59.2 °F 29.95 in WSW 0.7 mph 1.1 mph 99% 0.19 in 1.71 W/m2
06:14 59.5 °F 59.2 °F 29.95 in Calm     99% 0.19 in 2.57 W/m2
06:19 59.7 °F 59.4 °F 29.95 in SW 0.7 mph 2.2 mph 99% 0.12 in 9.05 W/m2
06:24 59.5 °F 59.2 °F 29.96 in SW 0.2 mph 1.1 mph 99% 0.19 in 9.05 W/m2
06:29 59.5 °F 59.2 °F 29.96 in Calm     99% 0.24 in 4.77 W/m2
06:34 59.5 °F 59.2 °F 29.95 in Calm     99% 0.24 in 11.25 W/m2
06:39 59.5 °F 59.2 °F 29.96 in WSW 0.2 mph 1.1 mph 99% 0.17 in 23.36 W/m2
06:44 59.5 °F 59.2 °F 29.95 in Calm     99% 0.12 in 12.48 W/m2
06:49 59.7 °F 59.4 °F 29.96 in SW 0.9 mph 1.1 mph 99% 0.07 in 25.94 W/m2
06:54 59.7 °F 59.4 °F 29.95 in Calm     99% 0.19 in 28.99 W/m2
06:59 59.5 °F 59.2 °F 29.96 in Calm     99% 0.19 in 31.56 W/m2
07:04 59.4 °F 59 °F 29.96 in SW 1.3 mph 2.2 mph 99% 0.12 in 28.63 W/m2
07:09 59 °F 58.6 °F 29.96 in WSW 0.9 mph 1.1 mph 99% 0.12 in 28.63 W/m2
07:14 58.6 °F 58.3 °F 29.96 in West 0.9 mph 1.1 mph 99% 0.07 in 29.85 W/m2
07:19 58.3 °F 57.9 °F 29.97 in WSW 0.7 mph 1.1 mph 99% 0.05 in 37.19 W/m2
07:24 58.5 °F 58.1 °F 29.96 in Calm     99% 0.05 in 44.16 W/m2
07:29 58.5 °F 58.1 °F 29.97 in Calm     99% 0.07 in 23.85 W/m2
07:34 58.6 °F 58.3 °F 29.97 in Calm     99% 0.12 in 39.39 W/m2
07:39 58.6 °F 58.3 °F 29.97 in Calm     99% 0.05 in 25.56 W/m2
07:44 58.6 °F 58.3 °F 29.97 in Calm     99% 0.07 in 46.73 W/m2
07:49 58.6 °F 58.3 °F 29.97 in Calm     99% 0.07 in 63.73 W/m2
07:54 58.5 °F 58.1 °F 29.97 in WSW 0.7 mph 1.1 mph 99% 0.05 in 58.97 W/m2
07:59 57.9 °F 57.6 °F 29.97 in WSW 0.7 mph 1.1 mph 99% 0.05 in 55.05 W/m2
08:04 57.7 °F 57.4 °F 29.97 in WSW 0.9 mph 1.1 mph 99% 0.07 in 42.45 W/m2
08:09 57.7 °F 57.4 °F 29.98 in Calm     99% 0.07 in 36.82 W/m2
08:14 57.7 °F 57.4 °F 29.97 in Calm     99% 0.12 in 53.70 W/m2
08:19 57.7 °F 57.4 °F 29.98 in Calm     99% 0.05 in 60.68 W/m2
08:24 57.7 °F 57.4 °F 29.98 in WSW 1.3 mph 2.2 mph 99% 0.07 in 79.76 W/m2
08:29 57.7 °F 57.4 °F 29.98 in WSW 1.3 mph 2.2 mph 99% 0.14 in 85.88 W/m2
08:34 57.6 °F 57.2 °F 29.98 in Calm     99% 0.12 in 83.68 W/m2
08:39 57.4 °F 57 °F 29.98 in SW 0.2 mph 1.1 mph 99% 0.12 in 84.53 W/m2
08:44 57.4 °F 57 °F 29.98 in Calm     99% 0.07 in 84.04 W/m2
08:48 57.6 °F 57.2 °F 29.99 in Calm     99% 0 in 82.82 W/m2
08:54 57.6 °F 57.2 °F 29.98 in Calm     99% 0.05 in 92.73 W/m2
08:59 57.6 °F 57.2 °F 29.99 in Calm     99% 0.12 in 93.58 W/m2
09:04 57.6 °F 57.2 °F 29.98 in WSW 0.2 mph 1.1 mph 99% 0.07 in 95.79 W/m2
09:09 57.7 °F 57.4 °F 29.98 in Calm     99% 0.05 in 110.59 W/m2
09:14 57.9 °F 57.6 °F 29.98 in WSW 0.2 mph 1.1 mph 99% 0.05 in 155.73 W/m2
09:19 57.9 °F 57.6 °F 29.97 in SW 0.2 mph 1.1 mph 99% 0 in 149.12 W/m2
09:24 58.1 °F 57.7 °F 29.98 in Calm     99% 0 in 137.02 W/m2
09:29 58.1 °F 57.7 °F 29.97 in WSW 1.1 mph 1.1 mph 99% 0.07 in 137.02 W/m2
09:34 58.1 °F 57.6 °F 29.97 in Calm     98% 0.07 in 109.24 W/m2
09:39 57.7 °F 57.2 °F 29.97 in NNE 0.2 mph 1.1 mph 98% 0 in 127.96 W/m2
09:44 57.6 °F 57 °F 29.97 in WSW 0.9 mph 1.1 mph 98% 0.05 in 138.73 W/m2
09:49 57.6 °F 57 °F 29.97 in South 1.1 mph 1.1 mph 98% 0.12 in 130.04 W/m2
09:54 57.6 °F 57 °F 29.97 in Calm     98% 0.07 in 147.41 W/m2
09:59 57.7 °F 57.2 °F 29.97 in Calm     98% 0.05 in 142.64 W/m2
10:04 58.1 °F 57.6 °F 29.97 in Calm     98% 0.05 in 139.58 W/m2
10:09 57.9 °F 57.2 °F 29.97 in NNW 0.9 mph 1.1 mph 97% 0 in 132.73 W/m2
10:14 57.7 °F 57 °F 29.97 in Calm     97% 0.07 in 135.30 W/m2
10:19 57.9 °F 57.2 °F 29.97 in Calm     97% 0.07 in 141.42 W/m2
10:24 58.3 °F 57.6 °F 29.97 in Calm     97% 0 in 134.44 W/m2
10:29 58.5 °F 57.7 °F 29.98 in Calm     97% 0.05 in 161.36 W/m2
10:34 58.1 °F 57.4 °F 29.98 in Calm     97% 0.05 in 163.93 W/m2
10:39 58.6 °F 57.9 °F 29.98 in Calm     97% 0 in 148.76 W/m2
10:44 58.8 °F 58.1 °F 29.97 in Calm     97% 0.07 in 163.07 W/m2
10:49 58.8 °F 58.1 °F 29.97 in Calm     97% 0.07 in 136.65 W/m2
10:54 59 °F 58.3 °F 29.97 in Calm     97% 0 in 141.42 W/m2
10:59 59 °F 58.3 °F 29.96 in Calm     97% 0.07 in 121.85 W/m2
11:04 59 °F 58.3 °F 29.97 in Calm     97% 0.07 in 165.64 W/m2
11:09 59.4 °F 58.6 °F 29.96 in Calm     97% 0 in 187.29 W/m2
11:14 59.5 °F 58.8 °F 29.97 in West 1.3 mph 2.2 mph 97% 0 in 176.53 W/m2
11:19 59.4 °F 58.6 °F 29.97 in NE 1.1 mph 1.1 mph 97% 0 in 188.64 W/m2
11:24 59.4 °F 58.6 °F 29.98 in Calm     97% 0.05 in 176.90 W/m2
11:29 59.7 °F 59 °F 29.98 in Calm     97% 0.05 in 166.50 W/m2
11:34 59.7 °F 59 °F 29.97 in SW 0.7 mph 1.1 mph 97% 0.05 in 165.64 W/m2
11:39 59.5 °F 58.8 °F 29.98 in Calm     97% 0 in 161.73 W/m2
11:44 59.7 °F 59 °F 29.98 in Calm     97% 0 in 136.16 W/m2
11:49 60.1 °F 59.4 °F 29.97 in Calm     97% 0 in 155.73 W/m2
11:54 60.1 °F 59.4 °F 29.98 in Calm     97% 0 in 196.47 W/m2
11:59 60.4 °F 59.7 °F 29.96 in Calm     97% 0 in 147.05 W/m2
12:04 60.3 °F 59.5 °F 29.96 in Calm     97% 0 in 244.67 W/m2
12:09 60.4 °F 59 °F 29.96 in SW 0.9 mph 1.1 mph 95% 0 in 190.84 W/m2
12:14 59.9 °F 58.5 °F 29.96 in Calm     95% 0 in 238.07 W/m2
12:19 60.6 °F 59.2 °F 29.96 in Calm     95% 0 in 256.78 W/m2
12:24 61 °F 59.9 °F 29.97 in Calm     96% 0 in 340.46 W/m2
12:29 61.2 °F 59.7 °F 29.96 in WSW 0.9 mph 1.1 mph 95% 0 in 439.79 W/m2
12:34 61.2 °F 59.2 °F 29.96 in West 0.7 mph 1.1 mph 94% 0 in 393.80 W/m2
12:39 61.3 °F 59.2 °F 29.97 in SW 1.1 mph 1.1 mph 93% 0 in 294.46 W/m2
12:44 61 °F 59 °F 29.97 in Calm     94% 0 in 279.29 W/m2
12:49 61.5 °F 59.5 °F 29.97 in West 0.7 mph 1.1 mph 94% 0 in 236.84 W/m2
12:54 61.2 °F 59 °F 29.97 in Calm     93% 0 in 447.62 W/m2
12:59 61.7 °F 59.4 °F 29.97 in SSE 0.2 mph 1.1 mph 92% 0 in 401.26 W/m2
13:04 62.1 °F 59 °F 29.96 in WSW 0.9 mph 1.1 mph 90% 0 in 379.49 W/m2
13:09 62.1 °F 59.5 °F 29.97 in WSW 0.7 mph 1.1 mph 91% 0 in 383.40 W/m2
13:14 62.1 °F 59 °F 29.96 in South 0.2 mph 1.1 mph 90% 0 in 346.57 W/m2
13:19 62.2 °F 59.7 °F 29.97 in Calm     91% 0 in 255.44 W/m2
13:24 62.6 °F 59.5 °F 29.98 in WSW 0.7 mph 1.1 mph 90% 0 in 260.69 W/m2
13:29 62.6 °F 60.1 °F 29.98 in WSW 0.9 mph 1.1 mph 91% 0 in 202.10 W/m2
13:34 62.2 °F 59.7 °F 29.97 in West 0.9 mph 1.1 mph 91% 0 in 257.64 W/m2
13:39 62.2 °F 59.9 °F 29.97 in Calm     92% 0 in 309.27 W/m2
13:44 63.3 °F 60.8 °F 29.97 in Calm     91% 0 in 355.26 W/m2
13:49 63.9 °F 60.4 °F 29.96 in Calm     89% 0 in 321.01 W/m2
13:54 63.7 °F 59.7 °F 29.97 in NE 1.3 mph 2.2 mph 87% 0 in 308.41 W/m2
13:59 63.9 °F 59.9 °F 29.97 in Calm     87% 0 in 252.38 W/m2
14:04 63.5 °F 59 °F 29.97 in SSE 0.7 mph 1.1 mph 85% 0 in 237.21 W/m2
14:09 63.5 °F 60.1 °F 29.97 in Calm     89% 0 in 216.41 W/m2
14:14 63.3 °F 60.8 °F 29.98 in Calm     91% 0 in 219.47 W/m2
14:19 63.5 °F 60.4 °F 29.98 in SW 0.2 mph 1.1 mph 90% 0 in 305.35 W/m2
14:24 64 °F 60.3 °F 29.96 in Calm     88% 0 in 420.35 W/m2
14:29 65.1 °F 60.8 °F 29.96 in Calm     86% 0 in 474.54 W/m2
14:34 65.7 °F 60.1 °F 29.97 in East 0.4 mph 1.1 mph 82% 0 in 367.37 W/m2
14:39 66 °F 62.1 °F 29.96 in West 1.3 mph 2.2 mph 87% 0 in 451.54 W/m2
14:44 65.8 °F 60.6 °F 29.98 in NE 1.3 mph 2.2 mph 83% 0 in 398.20 W/m2
14:49 66 °F 59 °F 29.97 in SSW 0.9 mph 2.2 mph 78% 0 in 439.79 W/m2
14:54 66 °F 59.7 °F 29.97 in WSW 0.2 mph 1.1 mph 80% 0 in 450.20 W/m2
14:59 66 °F 59.4 °F 29.97 in NNW 1.8 mph 3.4 mph 79% 0 in 326.64 W/m2
15:04 65.7 °F 59.7 °F 29.97 in Calm     81% 0 in 356.98 W/m2
15:09 65.8 °F 59.9 °F 29.97 in WSW 1.1 mph 1.1 mph 81% 0 in 280.15 W/m2
15:14 65.7 °F 60.4 °F 29.97 in WSW 2.5 mph 3.4 mph 83% 0 in 261.55 W/m2
15:19 64.9 °F 59.7 °F 29.97 in WSW 0.2 mph 1.1 mph 83% 0 in 231.22 W/m2
15:24 65.1 °F 60.4 °F 29.97 in Calm     85% 0 in 340.46 W/m2
15:29 65.7 °F 59.4 °F 29.96 in Calm     80% 0 in 394.29 W/m2
15:34 66.2 °F 59.2 °F 29.96 in WSW 0.9 mph 1.1 mph 78% 0 in 468.91 W/m2
15:39 66.6 °F 59.2 °F 29.97 in WSW 1.6 mph 2.2 mph 77% 0 in 306.69 W/m2
15:44 65.8 °F 58.8 °F 29.98 in North 1.3 mph 2.2 mph 78% 0 in 327.86 W/m2
15:49 66.4 °F 59 °F 29.98 in Calm     77% 0 in 391.23 W/m2
15:54 67.6 °F 61 °F 29.98 in WSW 1.8 mph 2.2 mph 79% 0 in 340.95 W/m2
15:59 67.1 °F 59.5 °F 29.97 in Calm     77% 0 in 348.29 W/m2
16:04 67.1 °F 59.5 °F 29.98 in Calm     77% 0 in 244.67 W/m2
16:09 67.1 °F 60.1 °F 29.98 in Calm     78% 0 in 481.88 W/m2
16:14 68 °F 61 °F 29.98 in East 2 mph 2.2 mph 78% 0 in 615.96 W/m2
16:19 68 °F 61.9 °F 29.98 in WNW 0.2 mph 1.1 mph 81% 0 in 212.49 W/m2
16:24 66.9 °F 61.7 °F 29.99 in Calm     83% 0 in 240.76 W/m2
16:29 66.7 °F 60.6 °F 29.98 in Calm     81% 0 in 293.61 W/m2
16:34 66.4 °F 59 °F 29.99 in WSW 0.7 mph 2.2 mph 77% 0 in 274.15 W/m2
16:39 66.7 °F 61.7 °F 29.98 in SW 0.9 mph 1.1 mph 84% 0 in 265.47 W/m2
16:44 67.1 °F 62.1 °F 29.98 in Calm     84% 0 in 306.20 W/m2
16:49 67.3 °F 61.5 °F 29.98 in WSW 0.9 mph 1.1 mph 82% 0 in 255.93 W/m2
16:54 67.3 °F 59.7 °F 29.98 in Calm     77% 0 in 188.64 W/m2
16:59 67.5 °F 62.1 °F 29.99 in Calm     83% 0 in 211.15 W/m2
17:04 67.5 °F 61.3 °F 29.99 in SW 1.1 mph 1.1 mph 81% 0 in 396.86 W/m2
17:09 68.2 °F 61.2 °F 29.98 in Calm     78% 0 in 547.45 W/m2
17:14 69.6 °F 57.7 °F 29.99 in SSW 0.7 mph 1.1 mph 66% 0 in 261.55 W/m2
17:19 70.5 °F 62.2 °F 29.99 in South 0.4 mph 1.1 mph 75% 0 in 392.57 W/m2
17:24 69.8 °F 63.1 °F 29.99 in Calm     79% 0 in 378.63 W/m2
17:29 69.3 °F 55.2 °F 29.99 in WSW 0.7 mph 1.1 mph 61% 0 in 204.66 W/m2
17:34 68.5 °F 60.3 °F 29.97 in WSW 1.1 mph 1.1 mph 75% 0 in 209.07 W/m2
17:39 66.4 °F 60.1 °F 29.98 in WSW 0.7 mph 1.1 mph 80% 0 in 152.19 W/m2
17:44 65.1 °F 59.9 °F 29.98 in WSW 1.1 mph 1.1 mph 83% 0 in 92.73 W/m2
17:49 64.4 °F 59.5 °F 29.99 in WSW 0.9 mph 1.1 mph 84% 0 in 170.41 W/m2
17:54 64.4 °F 59.2 °F 29.99 in WSW 1.1 mph 1.1 mph 83% 0 in 164.78 W/m2
17:59 64.2 °F 59.4 °F 29.98 in WSW 0.7 mph 1.1 mph 84% 0 in 104.96 W/m2
18:04 63.9 °F 59 °F 29.99 in WSW 1.1 mph 1.1 mph 84% 0 in 116.22 W/m2
18:09 63.7 °F 59.7 °F 29.99 in WSW 1.1 mph 1.1 mph 87% 0 in 116.22 W/m2
18:14 63.5 °F 59.5 °F 29.99 in WSW 0.7 mph 1.1 mph 87% 0 in 99.70 W/m2
18:19 63.5 °F 59.5 °F 30.00 in WSW 1.1 mph 1.1 mph 87% 0 in 84.53 W/m2
MaineWeather, Bauneg Beg
Compliments of Weather Underground - 4.5 mb